Gilman, IA

8:34 AM CDT on May 30, 2015 (GMT -0500)
Marshalltown Municipal | | Change Station
CLOSE
Current Station
Airport
Location: Marshalltown,
Elevation: 971 ft
Nearby Weather Stations

Elev 971 ft 42.11 °N, 92.92 °W | Updated 41 minutes ago

Overcast
Overcast
55 °F
Feels Like 55 °F
N
21
Wind Variable Wind from North

Today
High -- | Low -- °F
--% Chance of Precip.
Yesterday
High -- | Low -- °F
Precip. -- in
5:39 AM 8:38 PM
Waxing Gibbous, 90% visible
Pressure 30.03 in
Visibility 10.0 miles
Clouds Overcast 900 ft
Dew Point 53 °F
Humidity 93%
Rainfall 0.01 in
Snow Depth Not available.
UV 1 out of 12
Pollen 6.60 out of 12
Air Quality Not available.
Flu Activity No Activity
METAR KMIW 301253Z AUTO 01018KT 10SM OVC009 13/12 A3004 RMK AO2 RAE21 SLP169 P0000 T01280117

More Conditions Fewer Conditions

Pressure 30.03 in
Visibility 10.0 miles
Clouds Overcast 900 ft
Dew Point 53 °F
Humidity 93%
Rainfall 0.01 in
Snow Depth Not available.
UV 1 out of 12
Pollen 6.60 out of 12
Air Quality Not available.
Flu Activity No Activity
METAR KMIW 301253Z AUTO 01018KT 10SM OVC009 13/12 A3004 RMK AO2 RAE21 SLP169 P0000 T01280117

More Conditions Fewer Conditions

10-Day Weather Forecast

Almanac

Astronomy

May. 30, 2015 Rise Set
Actual Time
Civil Twilight
Nautical Twilight
Astronomical Twilight
Moon
Length of Visible Light
Length of Day
Tomorrow will be .
, % of the Moon is Illuminated

Today's Extremes

State Highs State Lows

Community

WunderPhotos

Upload Photos

1,825,509 photos uploaded!

WunderBlogs® & News

Nearby

Air Quality

  Air Quality AQ Index Pollutant
Not available.

Snow Depth

Station Depth Elevation

Earthquake Activity

City Distance Mag. Time & Date
Minimum magnitude displayed is 2.5.

Coastal Water Temperatures

Place Temperature

Stations

Nearby Weather Stations

Station Location Temp. Windchill Dew Point Humidity Wind Precip. Elev Updated Type